ANZ103 YSSY-NZAA
Flight info
| Callsign | ANZ103 |
|---|---|
| Flight time | N/A |
| Altitude | 37000 |
| Route | EVONN L521 LUNBI |
| Aircraft | B77W/H-SDE1E2E3FGHIJ2J3J4J5M1RWXY/LB1D1 |
Departure
| Time | 2026-05-07 22:14 |
|---|---|
| Airport | Sydney Kingsford Smith International Airport (YSSY) |
Arrival
| Time | N/A |
|---|---|
| Airport | Auckland International Airport (NZAA) |
| Time | Latitude | Longitude | Altitude | Speed | Heading |
|---|---|---|---|---|---|
| 2026-05-07 21:47 | -33.93833 | 151.16832 | 27 ft | 0 kts | 70° |
| 2026-05-07 21:59 | -33.93837 | 151.16820 | 31 ft | 3 kts | 70° |
| 2026-05-07 21:59 | -33.93843 | 151.16799 | 31 ft | 3 kts | 70° |
| 2026-05-07 22:00 | -33.93848 | 151.16779 | 26 ft | 3 kts | 95° |
| 2026-05-07 22:00 | -33.93842 | 151.16757 | 31 ft | 3 kts | 130° |
| 2026-05-07 22:00 | -33.93830 | 151.16744 | 31 ft | 0 kts | 159° |
| 2026-05-07 22:05 | -33.93874 | 151.16756 | 30 ft | 9 kts | 168° |
| 2026-05-07 22:06 | -33.93939 | 151.16775 | 31 ft | 10 kts | 165° |
| 2026-05-07 22:06 | -33.94000 | 151.16796 | 28 ft | 10 kts | 165° |
| 2026-05-07 22:06 | -33.94047 | 151.16848 | 31 ft | 10 kts | 105° |
| 2026-05-07 22:06 | -33.94039 | 151.16940 | 29 ft | 14 kts | 73° |
| 2026-05-07 22:07 | -33.94009 | 151.17067 | 27 ft | 17 kts | 74° |
| 2026-05-07 22:07 | -33.93987 | 151.17161 | 28 ft | 17 kts | 76° |
| 2026-05-07 22:07 | -33.93997 | 151.17215 | 30 ft | 7 kts | 135° |
| 2026-05-07 22:07 | -33.94101 | 151.17257 | 27 ft | 28 kts | 170° |
| 2026-05-07 22:08 | -33.94307 | 151.17312 | 29 ft | 45 kts | 167° |
| 2026-05-07 22:08 | -33.94630 | 151.17396 | 31 ft | 60 kts | 168° |
| 2026-05-07 22:08 | -33.95061 | 151.17506 | 29 ft | 56 kts | 168° |
| 2026-05-07 22:08 | -33.95352 | 151.17582 | 24 ft | 42 kts | 167° |
| 2026-05-07 22:09 | -33.95630 | 151.17655 | 28 ft | 39 kts | 168° |
| 2026-05-07 22:09 | -33.95848 | 151.17711 | 27 ft | 37 kts | 168° |
| 2026-05-07 22:09 | -33.96093 | 151.17775 | 29 ft | 34 kts | 168° |
| 2026-05-07 22:09 | -33.96317 | 151.17833 | 27 ft | 32 kts | 167° |
| 2026-05-07 22:10 | -33.96431 | 151.17902 | 28 ft | 12 kts | 110° |
| 2026-05-07 22:10 | -33.96432 | 151.17910 | 28 ft | 0 kts | 103° |
| 2026-05-07 22:11 | -33.96434 | 151.17935 | 28 ft | 6 kts | 94° |
| 2026-05-07 22:11 | -33.96425 | 151.18003 | 29 ft | 12 kts | 66° |
| 2026-05-07 22:12 | -33.96377 | 151.18043 | 29 ft | 12 kts | 12° |
| 2026-05-07 22:12 | -33.96326 | 151.18038 | 28 ft | 0 kts | 350° |
| 2026-05-07 22:13 | -33.96226 | 151.18013 | 30 ft | 50 kts | 348° |
| 2026-05-07 22:14 | -33.95613 | 151.17853 | 27 ft | 128 kts | 348° |
| 2026-05-07 22:14 | -33.94642 | 151.17579 | 36 ft | 188 kts | 343° |
| 2026-05-07 22:14 | -33.93575 | 151.17319 | 313 ft | 206 kts | 347° |
| 2026-05-07 22:14 | -33.92368 | 151.17051 | 969 ft | 211 kts | 344° |
| 2026-05-07 22:15 | -33.91064 | 151.16710 | 1792 ft | 222 kts | 338° |
| 2026-05-07 22:15 | -33.89909 | 151.16175 | 2327 ft | 220 kts | 315° |
| 2026-05-07 22:15 | -33.88858 | 151.14863 | 2746 ft | 222 kts | 304° |
| 2026-05-07 22:15 | -33.87808 | 151.13422 | 3014 ft | 236 kts | 306° |
| 2026-05-07 22:16 | -33.86673 | 151.11903 | 3209 ft | 254 kts | 306° |
| 2026-05-07 22:16 | -33.85512 | 151.10373 | 3508 ft | 267 kts | 307° |
| 2026-05-07 22:16 | -33.84276 | 151.08766 | 4007 ft | 275 kts | 308° |
| 2026-05-07 22:16 | -33.83122 | 151.07278 | 4516 ft | 280 kts | 308° |
| 2026-05-07 22:17 | -33.81778 | 151.05558 | 5112 ft | 284 kts | 309° |
| 2026-05-07 22:17 | -33.80488 | 151.03913 | 5719 ft | 286 kts | 309° |
| 2026-05-07 22:17 | -33.79115 | 151.02166 | 6371 ft | 289 kts | 309° |
| 2026-05-07 22:17 | -33.77740 | 151.00422 | 6948 ft | 291 kts | 309° |
| 2026-05-07 22:18 | -33.76327 | 150.98632 | 7568 ft | 292 kts | 308° |
| 2026-05-07 22:18 | -33.73532 | 150.95096 | 8792 ft | 295 kts | 307° |
| 2026-05-07 22:18 | -33.72136 | 150.93332 | 9364 ft | 296 kts | 307° |
| 2026-05-07 22:19 | -33.70727 | 150.91550 | 9943 ft | 299 kts | 306° |
| 2026-05-07 22:19 | -33.69409 | 150.89884 | 10398 ft | 302 kts | 306° |
| 2026-05-07 22:19 | -33.67942 | 150.88027 | 10618 ft | 318 kts | 306° |
| 2026-05-07 22:19 | -33.66397 | 150.86049 | 10754 ft | 335 kts | 306° |
| 2026-05-07 22:20 | -33.64862 | 150.84061 | 10902 ft | 352 kts | 306° |
| 2026-05-07 22:20 | -33.63173 | 150.82202 | 11008 ft | 373 kts | 322° |
| 2026-05-07 22:20 | -33.60699 | 150.81105 | 11404 ft | 398 kts | 348° |
| 2026-05-07 22:20 | -33.57869 | 150.81297 | 11922 ft | 415 kts | 11° |
| 2026-05-07 22:21 | -33.55352 | 150.82473 | 12432 ft | 425 kts | 27° |
| 2026-05-07 22:21 | -33.52917 | 150.84641 | 13049 ft | 432 kts | 45° |
| 2026-05-07 22:21 | -33.51089 | 150.87509 | 13602 ft | 436 kts | 63° |
| 2026-05-07 22:21 | -33.50066 | 150.90911 | 14103 ft | 436 kts | 84° |
| 2026-05-07 22:22 | -33.50050 | 150.94504 | 14586 ft | 429 kts | 107° |
| 2026-05-07 22:22 | -33.51109 | 150.97765 | 15068 ft | 416 kts | 130° |
| 2026-05-07 22:22 | -33.52818 | 151.00512 | 15467 ft | 414 kts | 135° |
| 2026-05-07 22:22 | -33.54588 | 151.03115 | 15886 ft | 419 kts | 136° |
| 2026-05-07 22:23 | -33.56460 | 151.05824 | 16464 ft | 422 kts | 136° |
| 2026-05-07 22:23 | -33.58337 | 151.08559 | 16945 ft | 427 kts | 136° |
| 2026-05-07 22:23 | -33.60216 | 151.11338 | 17453 ft | 432 kts | 136° |
| 2026-05-07 22:23 | -33.62108 | 151.14175 | 17939 ft | 437 kts | 135° |
| 2026-05-07 22:24 | -33.63993 | 151.17032 | 18414 ft | 442 kts | 135° |
| 2026-05-07 22:24 | -33.65898 | 151.19938 | 18858 ft | 445 kts | 135° |
| 2026-05-07 22:24 | -33.67820 | 151.22887 | 19408 ft | 446 kts | 135° |
| 2026-05-07 22:24 | -33.69728 | 151.25825 | 19957 ft | 447 kts | 135° |
| 2026-05-07 22:25 | -33.71642 | 151.28771 | 20438 ft | 450 kts | 136° |
| 2026-05-07 22:25 | -33.73524 | 151.31666 | 20852 ft | 453 kts | 136° |
| 2026-05-07 22:25 | -33.75293 | 151.34389 | 21260 ft | 456 kts | 136° |
| 2026-05-07 22:25 | -33.77222 | 151.37358 | 21658 ft | 461 kts | 136° |
| 2026-05-07 22:26 | -33.79072 | 151.40208 | 22036 ft | 464 kts | 136° |
| 2026-05-07 22:26 | -33.80976 | 151.43145 | 22469 ft | 466 kts | 136° |
| 2026-05-07 22:26 | -33.83023 | 151.46305 | 22920 ft | 469 kts | 136° |
| 2026-05-07 22:26 | -33.84995 | 151.49354 | 23352 ft | 471 kts | 136° |
| 2026-05-07 22:27 | -33.86824 | 151.52181 | 23717 ft | 474 kts | 136° |
| 2026-05-07 22:27 | -33.88845 | 151.55310 | 24048 ft | 477 kts | 136° |
| 2026-05-07 22:27 | -33.90866 | 151.58439 | 24360 ft | 480 kts | 136° |
| 2026-05-07 22:27 | -33.92923 | 151.61628 | 24680 ft | 483 kts | 136° |
| 2026-05-07 22:28 | -33.94927 | 151.64738 | 24998 ft | 487 kts | 136° |
| 2026-05-07 22:28 | -33.96894 | 151.67790 | 25185 ft | 492 kts | 136° |
| 2026-05-07 22:28 | -33.98988 | 151.71043 | 25444 ft | 496 kts | 135° |
| 2026-05-07 22:28 | -34.01084 | 151.74305 | 25781 ft | 498 kts | 135° |
| 2026-05-07 22:29 | -34.03112 | 151.77467 | 26100 ft | 499 kts | 135° |
| 2026-05-07 22:29 | -34.05241 | 151.80787 | 26455 ft | 502 kts | 135° |
| 2026-05-07 22:29 | -34.07380 | 151.84126 | 26836 ft | 502 kts | 135° |
| 2026-05-07 22:29 | -34.09518 | 151.87467 | 27174 ft | 503 kts | 135° |
| 2026-05-07 22:30 | -34.11662 | 151.90818 | 27441 ft | 506 kts | 135° |
| 2026-05-07 22:30 | -34.13821 | 151.94194 | 27706 ft | 510 kts | 135° |
| 2026-05-07 22:30 | -34.15999 | 151.97602 | 27871 ft | 515 kts | 134° |
| 2026-05-07 22:30 | -34.18001 | 152.01037 | 28055 ft | 524 kts | 128° |
| 2026-05-07 22:31 | -34.19814 | 152.04908 | 28336 ft | 530 kts | 123° |
| 2026-05-07 22:31 | -34.21328 | 152.08935 | 28624 ft | 537 kts | 116° |
| 2026-05-07 22:31 | -34.22589 | 152.13203 | 28855 ft | 541 kts | 114° |
| 2026-05-07 22:31 | -34.23815 | 152.17520 | 27827 ft | 550 kts | 113° |
| 2026-05-07 22:32 | -34.25081 | 152.22036 | 26382 ft | 569 kts | 114° |
| 2026-05-07 22:32 | -34.26283 | 152.26325 | 26546 ft | 555 kts | 114° |
| 2026-05-07 22:32 | -34.27519 | 152.30700 | 27254 ft | 544 kts | 114° |
| 2026-05-07 22:32 | -34.28729 | 152.34943 | 28059 ft | 534 kts | 114° |
| 2026-05-07 22:33 | -34.29950 | 152.39184 | 28529 ft | 533 kts | 114° |
| 2026-05-07 22:33 | -34.31182 | 152.43437 | 28690 ft | 537 kts | 114° |
| 2026-05-07 22:33 | -34.32425 | 152.47719 | 28803 ft | 542 kts | 114° |
| 2026-05-07 22:33 | -34.33672 | 152.52026 | 29016 ft | 544 kts | 114° |
| 2026-05-07 22:34 | -34.34917 | 152.56347 | 29304 ft | 545 kts | 114° |
| 2026-05-07 22:34 | -34.36165 | 152.60698 | 29573 ft | 546 kts | 114° |
| 2026-05-07 22:34 | -34.37406 | 152.65036 | 29936 ft | 545 kts | 114° |
| 2026-05-07 22:34 | -34.38639 | 152.69360 | 30255 ft | 543 kts | 114° |
| 2026-05-07 22:35 | -34.39872 | 152.73687 | 30500 ft | 544 kts | 114° |
| 2026-05-07 22:35 | -34.41106 | 152.78020 | 30687 ft | 545 kts | 114° |
| 2026-05-07 22:35 | -34.42344 | 152.82371 | 30817 ft | 547 kts | 114° |
| 2026-05-07 22:36 | -34.44684 | 152.90606 | 30922 ft | 551 kts | 113° |
| 2026-05-07 22:36 | -34.47174 | 152.99410 | 30901 ft | 550 kts | 113° |
| 2026-05-07 22:37 | -34.49598 | 153.08011 | 30891 ft | 548 kts | 113° |
| 2026-05-07 22:37 | -34.51891 | 153.16168 | 30889 ft | 548 kts | 113° |
| 2026-05-07 22:38 | -34.54236 | 153.24526 | 30878 ft | 550 kts | 112° |
| 2026-05-07 22:38 | -34.56695 | 153.33319 | 30885 ft | 552 kts | 112° |
| 2026-05-07 22:39 | -34.59012 | 153.41631 | 30856 ft | 554 kts | 112° |
| 2026-05-07 22:39 | -34.61046 | 153.48951 | 30878 ft | 556 kts | 112° |
| 2026-05-07 22:40 | -34.63454 | 153.57641 | 30855 ft | 558 kts | 112° |
| 2026-05-07 22:40 | -34.65547 | 153.65220 | 30847 ft | 558 kts | 112° |
| 2026-05-07 22:41 | -34.66242 | 153.67740 | 30846 ft | 558 kts | 112° |
| 2026-05-07 22:41 | -34.68370 | 153.75474 | 30863 ft | 557 kts | 112° |
| 2026-05-07 22:42 | -34.70400 | 153.82870 | 30830 ft | 559 kts | 112° |
| 2026-05-07 22:42 | -34.72210 | 153.89479 | 30870 ft | 558 kts | 112° |
| 2026-05-07 22:43 | -34.74093 | 153.96370 | 30825 ft | 560 kts | 112° |
| 2026-05-07 22:43 | -34.76117 | 154.03798 | 30837 ft | 561 kts | 112° |
| 2026-05-07 22:44 | -34.78282 | 154.10674 | 30761 ft | 554 kts | 128° |
| 2026-05-07 22:44 | -34.79923 | 154.13395 | 30820 ft | 540 kts | 141° |
| 2026-05-07 22:44 | -34.81787 | 154.15421 | 30829 ft | 527 kts | 154° |
| 2026-05-07 22:44 | -34.84356 | 154.17233 | 30863 ft | 509 kts | 165° |
| 2026-05-07 22:45 | -34.87718 | 154.18718 | 30466 ft | 489 kts | 176° |
| 2026-05-07 22:45 | -34.90953 | 154.19371 | 29948 ft | 471 kts | 186° |
| 2026-05-07 22:45 | -34.93014 | 154.19410 | 29595 ft | 458 kts | 193° |
| 2026-05-07 22:45 | -34.95434 | 154.19064 | 29156 ft | 444 kts | 201° |
| 2026-05-07 22:46 | -34.98204 | 154.18074 | 28636 ft | 427 kts | 211° |
| 2026-05-07 22:46 | -35.00453 | 154.16727 | 28174 ft | 414 kts | 219° |
| 2026-05-07 22:46 | -35.02191 | 154.15263 | 27774 ft | 404 kts | 225° |
| 2026-05-07 22:46 | -35.03984 | 154.13243 | 27316 ft | 395 kts | 232° |
| 2026-05-07 22:47 | -35.05496 | 154.10960 | 26861 ft | 387 kts | 239° |
| 2026-05-07 22:47 | -35.06494 | 154.08969 | 26555 ft | 383 kts | 244° |
| 2026-05-07 22:47 | -35.07447 | 154.06369 | 26101 ft | 379 kts | 251° |
| 2026-05-07 22:47 | -35.08133 | 154.03296 | 25549 ft | 376 kts | 258° |
| 2026-05-07 22:48 | -35.08445 | 154.00136 | 25069 ft | 374 kts | 263° |
| 2026-05-07 22:48 | -35.08518 | 153.96966 | 24590 ft | 373 kts | 268° |
| 2026-05-07 22:48 | -35.08257 | 153.93812 | 24111 ft | 376 kts | 277° |
| 2026-05-07 22:48 | -35.07367 | 153.90784 | 23620 ft | 379 kts | 286° |
| 2026-05-07 22:49 | -35.06453 | 153.88193 | 23175 ft | 375 kts | 285° |
| 2026-05-07 22:49 | -35.05526 | 153.85406 | 22658 ft | 373 kts | 284° |
| 2026-05-07 22:49 | -35.04581 | 153.82488 | 22108 ft | 371 kts | 284° |
| 2026-05-07 22:49 | -35.03641 | 153.79566 | 21581 ft | 369 kts | 284° |
| 2026-05-07 22:50 | -35.02707 | 153.76662 | 21066 ft | 368 kts | 284° |
| 2026-05-07 22:50 | -35.01772 | 153.73763 | 20542 ft | 366 kts | 284° |
| 2026-05-07 22:50 | -35.00839 | 153.70877 | 20037 ft | 365 kts | 284° |
| 2026-05-07 22:50 | -35.00072 | 153.68508 | 19633 ft | 364 kts | 284° |
| 2026-05-07 22:51 | -34.99827 | 153.67753 | 19505 ft | 364 kts | 284° |
| 2026-05-07 22:51 | -34.99228 | 153.65909 | 19181 ft | 363 kts | 284° |
| 2026-05-07 22:51 | -34.98301 | 153.63057 | 18699 ft | 363 kts | 284° |
| 2026-05-07 22:51 | -34.97423 | 153.60357 | 18252 ft | 362 kts | 284° |
| 2026-05-07 22:52 | -34.96618 | 153.57884 | 17791 ft | 361 kts | 285° |
| 2026-05-07 22:52 | -34.96063 | 153.56182 | 17476 ft | 360 kts | 285° |
| 2026-05-07 22:52 | -34.95140 | 153.53352 | 16948 ft | 360 kts | 285° |
| 2026-05-07 22:52 | -34.94223 | 153.50542 | 16438 ft | 359 kts | 285° |
| 2026-05-07 22:53 | -34.93370 | 153.47932 | 15965 ft | 358 kts | 285° |
| 2026-05-07 22:53 | -34.92448 | 153.45116 | 15480 ft | 357 kts | 285° |
| 2026-05-07 22:53 | -34.91550 | 153.42374 | 15070 ft | 353 kts | 285° |
| 2026-05-07 22:53 | -34.90639 | 153.39608 | 14954 ft | 341 kts | 285° |
| 2026-05-07 22:54 | -34.89781 | 153.37007 | 14964 ft | 338 kts | 285° |
| 2026-05-07 22:54 | -34.88917 | 153.34369 | 14966 ft | 339 kts | 285° |
| 2026-05-07 22:54 | -34.88195 | 153.32164 | 14955 ft | 337 kts | 285° |
| 2026-05-07 22:54 | -34.87325 | 153.29518 | 14953 ft | 334 kts | 285° |
| 2026-05-07 22:55 | -34.86462 | 153.26897 | 14951 ft | 333 kts | 285° |
| 2026-05-07 22:55 | -34.85601 | 153.24278 | 14941 ft | 333 kts | 285° |
| 2026-05-07 22:55 | -34.84752 | 153.21700 | 14956 ft | 333 kts | 285° |
| 2026-05-07 22:55 | -34.83898 | 153.19109 | 14961 ft | 333 kts | 285° |
| 2026-05-07 22:56 | -34.83033 | 153.16489 | 14969 ft | 334 kts | 285° |
| 2026-05-07 22:56 | -34.82182 | 153.13912 | 14970 ft | 335 kts | 285° |
| 2026-05-07 22:56 | -34.81311 | 153.11277 | 14952 ft | 335 kts | 285° |
| 2026-05-07 22:56 | -34.80453 | 153.08686 | 14960 ft | 336 kts | 285° |
| 2026-05-07 22:57 | -34.79603 | 153.06121 | 14966 ft | 337 kts | 285° |
| 2026-05-07 22:57 | -34.78731 | 153.03492 | 14975 ft | 338 kts | 285° |
| 2026-05-07 22:57 | -34.77892 | 153.00962 | 14967 ft | 338 kts | 285° |
| 2026-05-07 22:57 | -34.77021 | 152.98340 | 14977 ft | 339 kts | 285° |
| 2026-05-07 22:58 | -34.76146 | 152.95710 | 14982 ft | 339 kts | 285° |
| 2026-05-07 22:58 | -34.75255 | 152.93033 | 14975 ft | 339 kts | 285° |
| 2026-05-07 22:58 | -34.74371 | 152.90383 | 14979 ft | 339 kts | 285° |
| 2026-05-07 22:58 | -34.73485 | 152.87727 | 14981 ft | 339 kts | 285° |
| 2026-05-07 22:59 | -34.72601 | 152.85078 | 14985 ft | 338 kts | 285° |
| 2026-05-07 22:59 | -34.71728 | 152.82465 | 14965 ft | 338 kts | 285° |
| 2026-05-07 22:59 | -34.70843 | 152.79820 | 14979 ft | 337 kts | 285° |
| 2026-05-07 22:59 | -34.69959 | 152.77178 | 14973 ft | 337 kts | 285° |
| 2026-05-07 23:00 | -34.69085 | 152.74568 | 15005 ft | 336 kts | 285° |
| 2026-05-07 23:00 | -34.68238 | 152.72041 | 15004 ft | 336 kts | 285° |
| 2026-05-07 23:00 | -34.67375 | 152.69468 | 14984 ft | 336 kts | 285° |
| 2026-05-07 23:00 | -34.66492 | 152.66837 | 15007 ft | 336 kts | 285° |
| 2026-05-07 23:01 | -34.65707 | 152.64499 | 15008 ft | 336 kts | 285° |
| 2026-05-07 23:01 | -34.64840 | 152.61919 | 15000 ft | 337 kts | 285° |
| 2026-05-07 23:01 | -34.63961 | 152.59308 | 15011 ft | 337 kts | 285° |
| 2026-05-07 23:01 | -34.63072 | 152.56668 | 15000 ft | 337 kts | 285° |
| 2026-05-07 23:02 | -34.62185 | 152.54035 | 15009 ft | 338 kts | 285° |
| 2026-05-07 23:02 | -34.61295 | 152.51397 | 14998 ft | 338 kts | 285° |
| 2026-05-07 23:02 | -34.60402 | 152.48754 | 15006 ft | 338 kts | 285° |
| 2026-05-07 23:02 | -34.59526 | 152.46161 | 15011 ft | 338 kts | 285° |
| 2026-05-07 23:03 | -34.58693 | 152.43699 | 15010 ft | 339 kts | 285° |
| 2026-05-07 23:03 | -34.57796 | 152.41047 | 14970 ft | 339 kts | 285° |
| 2026-05-07 23:03 | -34.57004 | 152.38708 | 14795 ft | 342 kts | 286° |
| 2026-05-07 23:03 | -34.56101 | 152.36056 | 14520 ft | 342 kts | 286° |
| 2026-05-07 23:04 | -34.55194 | 152.33404 | 14252 ft | 339 kts | 286° |
| 2026-05-07 23:04 | -34.54295 | 152.30771 | 13971 ft | 336 kts | 286° |
| 2026-05-07 23:04 | -34.53416 | 152.28191 | 13712 ft | 333 kts | 286° |
| 2026-05-07 23:04 | -34.52537 | 152.25607 | 13417 ft | 331 kts | 286° |
| 2026-05-07 23:05 | -34.51661 | 152.23033 | 13128 ft | 329 kts | 286° |
| 2026-05-07 23:05 | -34.50793 | 152.20484 | 12838 ft | 328 kts | 286° |
| 2026-05-07 23:05 | -34.49936 | 152.17968 | 12559 ft | 326 kts | 286° |
| 2026-05-07 23:05 | -34.49070 | 152.15429 | 12296 ft | 326 kts | 286° |
| 2026-05-07 23:06 | -34.48266 | 152.13074 | 12028 ft | 325 kts | 286° |
| 2026-05-07 23:06 | -34.47405 | 152.10552 | 11754 ft | 324 kts | 287° |
| 2026-05-07 23:06 | -34.46541 | 152.08026 | 11477 ft | 324 kts | 287° |
| 2026-05-07 23:06 | -34.45679 | 152.05506 | 11207 ft | 324 kts | 287° |
| 2026-05-07 23:07 | -34.44814 | 152.02981 | 10936 ft | 324 kts | 287° |
| 2026-05-07 23:07 | -34.43957 | 152.00481 | 10672 ft | 324 kts | 287° |
| 2026-05-07 23:07 | -34.43093 | 151.97961 | 10408 ft | 324 kts | 287° |
| 2026-05-07 23:07 | -34.42247 | 151.95499 | 10164 ft | 324 kts | 287° |
| 2026-05-07 23:08 | -34.41388 | 151.92999 | 9893 ft | 323 kts | 287° |
| 2026-05-07 23:08 | -34.40521 | 151.90479 | 9600 ft | 323 kts | 287° |
| 2026-05-07 23:08 | -34.39656 | 151.87969 | 9309 ft | 323 kts | 287° |
| 2026-05-07 23:08 | -34.38880 | 151.85716 | 9055 ft | 322 kts | 287° |
| 2026-05-07 23:09 | -34.38026 | 151.83241 | 8768 ft | 322 kts | 287° |
| 2026-05-07 23:09 | -34.37164 | 151.80744 | 8497 ft | 321 kts | 287° |
| 2026-05-07 23:09 | -34.36338 | 151.78352 | 8234 ft | 320 kts | 287° |
| 2026-05-07 23:09 | -34.35479 | 151.75867 | 7956 ft | 319 kts | 287° |
| 2026-05-07 23:10 | -34.34631 | 151.73415 | 7680 ft | 318 kts | 287° |
| 2026-05-07 23:10 | -34.33831 | 151.71107 | 7421 ft | 317 kts | 286° |
| 2026-05-07 23:10 | -34.32952 | 151.68570 | 7143 ft | 315 kts | 286° |
| 2026-05-07 23:10 | -34.32108 | 151.66136 | 6874 ft | 314 kts | 286° |
| 2026-05-07 23:11 | -34.31265 | 151.63706 | 6602 ft | 313 kts | 286° |
| 2026-05-07 23:11 | -34.30425 | 151.61284 | 6299 ft | 312 kts | 287° |
| 2026-05-07 23:11 | -34.29590 | 151.58881 | 6018 ft | 311 kts | 287° |
| 2026-05-07 23:11 | -34.28809 | 151.56634 | 5758 ft | 310 kts | 287° |
| 2026-05-07 23:12 | -34.27945 | 151.54150 | 5475 ft | 310 kts | 287° |
| 2026-05-07 23:12 | -34.27120 | 151.51781 | 5210 ft | 309 kts | 286° |
| 2026-05-07 23:12 | -34.26292 | 151.49403 | 4937 ft | 309 kts | 286° |
| 2026-05-07 23:12 | -34.25458 | 151.47011 | 4656 ft | 309 kts | 287° |
| 2026-05-07 23:13 | -34.24648 | 151.44687 | 4388 ft | 308 kts | 287° |
| 2026-05-07 23:13 | -34.23819 | 151.42310 | 4122 ft | 308 kts | 287° |
| 2026-05-07 23:13 | -34.22985 | 151.39924 | 3856 ft | 307 kts | 287° |
| 2026-05-07 23:13 | -34.22218 | 151.37728 | 3605 ft | 307 kts | 287° |
| 2026-05-07 23:14 | -34.21388 | 151.35357 | 3331 ft | 304 kts | 287° |
| 2026-05-07 23:14 | -34.20586 | 151.33066 | 3157 ft | 297 kts | 288° |
| 2026-05-07 23:14 | -34.19792 | 151.30806 | 3085 ft | 291 kts | 288° |
| 2026-05-07 23:14 | -34.19023 | 151.28609 | 3103 ft | 297 kts | 288° |
| 2026-05-07 23:15 | -34.18208 | 151.26293 | 3101 ft | 301 kts | 290° |
| 2026-05-07 23:15 | -34.17068 | 151.24285 | 3099 ft | 300 kts | 314° |
| 2026-05-07 23:15 | -34.15304 | 151.23068 | 3323 ft | 297 kts | 338° |
| 2026-05-07 23:15 | -34.13459 | 151.22505 | 3211 ft | 297 kts | 345° |
| 2026-05-07 23:16 | -34.11621 | 151.22095 | 3245 ft | 273 kts | 348° |
| 2026-05-07 23:16 | -34.09785 | 151.21699 | 2829 ft | 282 kts | 342° |
| 2026-05-07 23:16 | -34.07821 | 151.21115 | 1992 ft | 287 kts | 339° |
| 2026-05-07 23:16 | -34.06030 | 151.20622 | 1688 ft | 271 kts | 341° |
| 2026-05-07 23:17 | -34.04300 | 151.20174 | 1631 ft | 246 kts | 340° |
| 2026-05-07 23:17 | -34.03032 | 151.19837 | 1358 ft | 237 kts | 340° |
| 2026-05-07 23:17 | -34.01578 | 151.19453 | 1110 ft | 222 kts | 340° |
| 2026-05-07 23:17 | -34.00397 | 151.19138 | 868 ft | 203 kts | 340° |
| 2026-05-07 23:18 | -33.99223 | 151.18826 | 611 ft | 183 kts | 342° |
| 2026-05-07 23:18 | -33.98093 | 151.18531 | 379 ft | 167 kts | 342° |
| 2026-05-07 23:18 | -33.96983 | 151.18227 | 208 ft | 163 kts | 342° |
| 2026-05-07 23:18 | -33.95967 | 151.17956 | 46 ft | 163 kts | 342° |
| 2026-05-07 23:19 | -33.95420 | 151.17781 | 26 ft | 114 kts | 348° |
| 2026-05-07 23:19 | -33.94831 | 151.17636 | 27 ft | 56 kts | 349° |
| 2026-05-07 23:19 | -33.94534 | 151.17539 | 29 ft | 35 kts | 336° |
| 2026-05-07 23:19 | -33.94392 | 151.17424 | 30 ft | 0 kts | 318° |
| 2026-05-07 23:22 | -33.94373 | 151.17403 | 30 ft | 11 kts | 318° |
| 2026-05-07 23:22 | -33.94281 | 151.17309 | 28 ft | 22 kts | 327° |
| 2026-05-07 23:23 | -33.94136 | 151.17267 | 27 ft | 22 kts | 347° |
| 2026-05-07 23:23 | -33.94017 | 151.17223 | 28 ft | 22 kts | 325° |
| 2026-05-07 23:23 | -33.94012 | 151.17050 | 30 ft | 22 kts | 255° |
| 2026-05-07 23:23 | -33.94050 | 151.16896 | 29 ft | 22 kts | 254° |
| 2026-05-07 23:24 | -33.93974 | 151.16782 | 28 ft | 22 kts | 345° |
| 2026-05-07 23:24 | -33.93886 | 151.16760 | 30 ft | 22 kts | 7° |
| 2026-05-07 23:24 | -33.93835 | 151.16827 | 30 ft | 8 kts | 73° |